createdAt,value
2022-12-31T00:01:29.506Z,88.01
2022-12-31T00:03:56.933Z,87.90
2022-12-31T00:06:28.130Z,87.99
2022-12-31T00:08:56.921Z,87.89
2022-12-31T00:11:25.291Z,88.03
2022-12-31T00:13:52.872Z,87.95
2022-12-31T00:16:24.375Z,88.30
2022-12-31T00:18:55.976Z,88.11
2022-12-31T00:21:22.534Z,88.18
2022-12-31T00:23:49.255Z,88.12
2022-12-31T00:26:20.242Z,88.01
2022-12-31T00:28:48.036Z,88.17
2022-12-31T00:31:17.999Z,88.14
2022-12-31T00:33:45.409Z,88.08
2022-12-31T00:36:15.798Z,88.41
2022-12-31T00:38:45.563Z,88.97
2022-12-31T00:41:13.182Z,88.87
2022-12-31T00:43:39.661Z,88.87
2022-12-31T00:46:06.797Z,89.34
2022-12-31T00:48:34.702Z,89.34
2022-12-31T00:51:03.835Z,89.73
2022-12-31T00:53:30.519Z,89.94
2022-12-31T00:56:14.407Z,89.38
2022-12-31T00:58:40.961Z,89.36
2022-12-31T01:01:12.599Z,89.44
2022-12-31T01:03:39.133Z,90.50
2022-12-31T01:06:06.263Z,89.93
2022-12-31T01:08:32.950Z,89.98
2022-12-31T01:11:20.295Z,89.97
2022-12-31T01:13:52.052Z,89.84
2022-12-31T01:16:22.616Z,89.93
2022-12-31T01:18:50.218Z,89.47
2022-12-31T01:21:17.865Z,89.55
2022-12-31T01:23:44.649Z,89.31
2022-12-31T01:26:13.676Z,89.77
2022-12-31T01:28:40.717Z,89.49
2022-12-31T01:31:10.762Z,89.22
2022-12-31T01:33:38.060Z,89.74
2022-12-31T01:36:08.358Z,92.50
2022-12-31T01:38:35.963Z,91.49
2022-12-31T01:41:03.696Z,90.77
2022-12-31T01:44:08.393Z,90.51
2022-12-31T01:46:41.229Z,90.43
2022-12-31T01:49:18.707Z,90.29
2022-12-31T01:51:50.039Z,90.08
2022-12-31T01:54:20.497Z,90.00
2022-12-31T01:56:49.407Z,90.32
2022-12-31T01:59:18.141Z,90.34
2022-12-31T02:01:47.594Z,90.59
2022-12-31T02:04:15.660Z,90.71
2022-12-31T02:06:50.541Z,90.75
2022-12-31T02:09:19.138Z,90.84
2022-12-31T02:11:45.577Z,90.80
2022-12-31T02:14:16.643Z,90.65
2022-12-31T02:17:05.047Z,90.68
2022-12-31T02:20:00.196Z,90.72
2022-12-31T02:22:57.094Z,90.64
2022-12-31T02:25:51.955Z,90.60
2022-12-31T02:28:57.421Z,90.78
2022-12-31T02:31:32.234Z,90.85
2022-12-31T02:34:36.692Z,90.87
2022-12-31T02:37:09.052Z,90.66
2022-12-31T02:39:36.607Z,90.62
2022-12-31T02:42:03.308Z,90.78
2022-12-31T02:44:33.701Z,90.80
2022-12-31T02:47:26.220Z,90.90
2022-12-31T02:50:28.852Z,90.46
2022-12-31T02:53:18.908Z,90.07
2022-12-31T02:55:57.125Z,90.75
2022-12-31T02:59:09.127Z,90.12
2022-12-31T03:01:59.461Z,90.28
2022-12-31T03:04:35.531Z,90.23
2022-12-31T03:07:08.175Z,90.14
2022-12-31T03:09:36.019Z,90.85
2022-12-31T03:12:20.020Z,90.83
2022-12-31T03:14:46.977Z,91.28
2022-12-31T03:17:13.838Z,91.25
2022-12-31T03:20:00.485Z,92.09
2022-12-31T03:22:27.340Z,91.54
2022-12-31T03:25:30.790Z,91.69
2022-12-31T03:27:58.214Z,91.73
2022-12-31T03:30:25.373Z,91.38
2022-12-31T03:32:52.666Z,90.78
2022-12-31T03:35:20.626Z,89.96
2022-12-31T03:37:48.010Z,89.85
2022-12-31T03:40:16.160Z,90.26
2022-12-31T03:42:42.517Z,90.89
2022-12-31T03:45:10.218Z,90.93
2022-12-31T03:47:36.805Z,90.30
2022-12-31T03:50:05.231Z,89.88
2022-12-31T03:52:31.740Z,89.73
2022-12-31T03:54:58.169Z,89.82
2022-12-31T03:57:24.882Z,90.02
2022-12-31T03:59:51.375Z,90.35
2022-12-31T04:02:20.871Z,92.27
2022-12-31T04:04:49.685Z,91.31
2022-12-31T04:07:16.340Z,91.48
2022-12-31T04:09:43.090Z,91.23
2022-12-31T04:12:09.531Z,91.01
2022-12-31T04:14:36.009Z,91.46
2022-12-31T04:17:02.648Z,91.50
2022-12-31T04:19:29.156Z,92.57
2022-12-31T04:21:55.602Z,93.10
2022-12-31T04:24:22.279Z,92.20
2022-12-31T04:26:49.213Z,92.16
2022-12-31T04:29:15.628Z,91.80
2022-12-31T04:31:42.156Z,91.55
2022-12-31T04:34:08.869Z,91.45
2022-12-31T04:36:35.309Z,90.91
2022-12-31T04:39:01.756Z,90.49
2022-12-31T04:41:28.285Z,90.08
2022-12-31T04:43:57.895Z,90.26
2022-12-31T04:46:27.083Z,90.11
2022-12-31T04:48:54.035Z,90.20
2022-12-31T04:51:21.193Z,90.22
2022-12-31T04:53:48.726Z,90.24
2022-12-31T04:56:16.062Z,90.05
2022-12-31T04:58:44.325Z,90.09
2022-12-31T05:01:12.183Z,89.77
2022-12-31T05:03:39.323Z,89.84
2022-12-31T05:06:10.133Z,89.85
2022-12-31T05:08:36.751Z,89.99
2022-12-31T05:11:03.437Z,89.40
2022-12-31T05:13:33.337Z,89.65
2022-12-31T05:16:01.519Z,90.20
2022-12-31T05:18:29.075Z,90.39
2022-12-31T05:20:55.858Z,90.17
2022-12-31T05:23:23.714Z,90.80
2022-12-31T05:25:50.812Z,89.97
2022-12-31T05:28:17.969Z,89.45
2022-12-31T05:30:47.104Z,89.31
2022-12-31T05:33:13.582Z,89.05
2022-12-31T05:35:40.007Z,89.66
2022-12-31T05:38:07.214Z,90.08
2022-12-31T05:40:33.692Z,90.70
2022-12-31T05:43:00.049Z,90.47
2022-12-31T05:45:30.789Z,90.07
2022-12-31T05:47:57.740Z,90.22
2022-12-31T05:50:24.600Z,90.24
2022-12-31T05:52:55.125Z,90.59
2022-12-31T05:55:22.291Z,91.23
2022-12-31T05:57:48.671Z,91.00
2022-12-31T06:00:15.553Z,90.93
2022-12-31T06:02:42.152Z,90.78
2022-12-31T06:05:09.639Z,90.69
2022-12-31T06:07:36.190Z,90.53
2022-12-31T06:10:04.795Z,90.32
2022-12-31T06:12:31.236Z,90.32
2022-12-31T06:14:57.754Z,89.85
2022-12-31T06:17:24.276Z,89.64
2022-12-31T06:19:50.728Z,89.71
2022-12-31T06:22:17.226Z,89.96
2022-12-31T06:24:43.691Z,90.03
2022-12-31T06:27:10.276Z,90.29
2022-12-31T06:29:36.823Z,89.92
2022-12-31T06:32:03.441Z,88.95
2022-12-31T06:34:29.836Z,89.00
2022-12-31T06:36:56.268Z,88.94
2022-12-31T06:39:22.830Z,89.02
2022-12-31T06:41:49.325Z,89.19
2022-12-31T06:44:15.929Z,89.50
2022-12-31T06:46:42.404Z,89.84
2022-12-31T06:49:09.047Z,90.16
2022-12-31T06:51:35.564Z,90.19
2022-12-31T06:54:01.908Z,89.99
2022-12-31T06:56:34.322Z,89.74
2022-12-31T06:59:02.363Z,90.17
2022-12-31T07:02:00.858Z,89.99
2022-12-31T07:05:03.715Z,90.06
2022-12-31T07:07:47.731Z,90.08
2022-12-31T07:10:39.465Z,90.63
2022-12-31T07:13:27.600Z,90.16
2022-12-31T07:16:09.561Z,90.19
2022-12-31T07:18:54.517Z,89.99
2022-12-31T07:21:32.870Z,89.29
2022-12-31T07:23:59.663Z,89.26
2022-12-31T07:26:56.757Z,89.23
2022-12-31T07:29:30.776Z,88.92
2022-12-31T07:32:22.239Z,88.50
2022-12-31T07:35:06.207Z,88.41
2022-12-31T07:37:46.733Z,87.80
2022-12-31T07:40:24.086Z,87.97
2022-12-31T07:43:09.978Z,88.36
2022-12-31T07:45:47.295Z,88.47
2022-12-31T07:48:22.441Z,89.10
2022-12-31T07:50:50.726Z,88.94
2022-12-31T07:53:17.497Z,89.34
2022-12-31T07:55:43.994Z,89.07
2022-12-31T07:58:20.787Z,89.09
2022-12-31T08:00:47.942Z,89.21
2022-12-31T08:03:35.141Z,89.46
2022-12-31T08:06:10.640Z,89.32
2022-12-31T08:08:53.166Z,89.28
2022-12-31T08:11:31.213Z,88.71
2022-12-31T08:14:01.019Z,88.59
2022-12-31T08:16:29.044Z,88.50
2022-12-31T08:18:55.974Z,88.22
2022-12-31T08:21:43.100Z,88.20
2022-12-31T08:24:38.741Z,88.37
2022-12-31T08:27:20.308Z,88.41
2022-12-31T08:30:16.467Z,88.14
2022-12-31T08:33:09.306Z,88.28
2022-12-31T08:36:09.302Z,87.79
2022-12-31T08:38:55.881Z,88.11
2022-12-31T08:41:29.476Z,88.06
2022-12-31T08:44:16.374Z,88.87
2022-12-31T08:46:56.391Z,88.34
2022-12-31T08:49:26.746Z,88.06
2022-12-31T08:51:53.712Z,87.98
2022-12-31T08:54:20.788Z,87.17
2022-12-31T08:57:10.118Z,86.30
2022-12-31T08:59:54.946Z,86.23
2022-12-31T09:02:43.215Z,86.60
2022-12-31T09:05:44.952Z,86.70
2022-12-31T09:08:29.779Z,87.15
2022-12-31T09:11:09.759Z,85.84
2022-12-31T09:14:01.680Z,86.12
2022-12-31T09:16:48.011Z,85.65
2022-12-31T09:19:16.954Z,85.02
2022-12-31T09:21:44.507Z,84.54
2022-12-31T09:24:15.927Z,84.13
2022-12-31T09:27:02.503Z,84.21
2022-12-31T09:30:03.308Z,82.84
2022-12-31T09:32:49.336Z,83.87
2022-12-31T09:35:34.802Z,81.62
2022-12-31T09:38:23.064Z,81.75
2022-12-31T09:41:05.722Z,81.21
2022-12-31T09:44:04.402Z,82.26
2022-12-31T09:47:03.597Z,80.04
2022-12-31T09:49:52.306Z,80.40
2022-12-31T09:52:33.106Z,80.57
2022-12-31T09:55:33.768Z,79.44
2022-12-31T09:58:34.328Z,80.23
2022-12-31T10:01:23.986Z,80.42
2022-12-31T10:04:24.693Z,79.08
2022-12-31T10:07:10.038Z,79.33
2022-12-31T10:10:02.031Z,79.41
2022-12-31T10:13:01.128Z,80.51
2022-12-31T10:16:05.459Z,79.82
2022-12-31T10:18:51.591Z,78.41
2022-12-31T10:21:36.001Z,79.19
2022-12-31T10:24:28.474Z,79.02
2022-12-31T10:27:13.459Z,78.24
2022-12-31T10:29:57.446Z,78.49
2022-12-31T10:32:50.338Z,77.71
2022-12-31T10:35:53.110Z,77.66
2022-12-31T10:38:32.075Z,78.37
2022-12-31T10:41:30.491Z,78.67
2022-12-31T10:44:26.636Z,79.53
2022-12-31T10:47:20.968Z,78.92
2022-12-31T10:50:17.716Z,78.04
2022-12-31T10:53:17.554Z,77.65
2022-12-31T10:56:20.133Z,78.13
2022-12-31T10:59:17.961Z,78.56
2022-12-31T11:01:58.487Z,78.86
2022-12-31T11:04:51.984Z,78.47
2022-12-31T11:07:48.510Z,78.55
2022-12-31T11:10:42.083Z,77.83
2022-12-31T11:13:38.854Z,77.25
2022-12-31T11:16:30.937Z,77.20
2022-12-31T11:19:13.866Z,76.99
2022-12-31T11:22:08.812Z,77.06
2022-12-31T11:25:01.184Z,77.62
2022-12-31T11:27:59.729Z,77.32
2022-12-31T11:31:05.826Z,77.38
2022-12-31T11:34:00.331Z,75.92
2022-12-31T11:36:59.336Z,74.96
2022-12-31T11:39:53.468Z,73.73
2022-12-31T11:42:32.037Z,73.51
2022-12-31T11:45:14.161Z,71.63
2022-12-31T11:48:29.797Z,72.21
2022-12-31T11:51:09.654Z,72.38
2022-12-31T11:54:00.745Z,71.38
2022-12-31T11:56:39.804Z,68.86
2022-12-31T11:59:19.062Z,68.64
2022-12-31T12:01:58.935Z,68.74
2022-12-31T12:04:25.755Z,69.48
2022-12-31T12:06:52.784Z,69.79
2022-12-31T12:09:27.931Z,69.50
2022-12-31T12:12:04.711Z,66.63
2022-12-31T12:14:35.937Z,65.75
2022-12-31T12:17:07.411Z,64.98
2022-12-31T12:19:40.666Z,64.26
2022-12-31T12:22:22.232Z,64.62
2022-12-31T12:25:07.210Z,65.58
2022-12-31T12:27:36.386Z,65.52
2022-12-31T12:30:17.215Z,64.99
2022-12-31T12:32:53.404Z,65.46
2022-12-31T12:35:26.213Z,66.00
2022-12-31T12:38:03.798Z,65.87
2022-12-31T12:40:34.308Z,65.56
2022-12-31T12:43:02.887Z,66.05
2022-12-31T12:45:52.361Z,66.24
2022-12-31T12:48:30.407Z,66.06
2022-12-31T12:50:57.110Z,64.33
2022-12-31T12:53:45.137Z,62.82
2022-12-31T12:56:26.832Z,62.83
2022-12-31T12:59:26.991Z,62.50
2022-12-31T13:02:15.947Z,61.99
2022-12-31T13:05:08.926Z,61.97
2022-12-31T13:07:52.069Z,62.20
2022-12-31T13:10:46.093Z,61.99
2022-12-31T13:13:33.217Z,61.61
2022-12-31T13:16:17.983Z,61.94
2022-12-31T13:19:01.677Z,62.70
2022-12-31T13:21:43.638Z,64.17
2022-12-31T13:24:46.304Z,65.02
2022-12-31T13:27:26.451Z,65.60
2022-12-31T13:29:58.478Z,66.02
2022-12-31T13:32:41.643Z,66.50
2022-12-31T13:35:26.417Z,67.49
2022-12-31T13:38:05.301Z,68.10
2022-12-31T13:40:45.964Z,68.36
2022-12-31T13:43:25.033Z,68.85
2022-12-31T13:46:03.753Z,69.31
2022-12-31T13:48:39.865Z,69.85
2022-12-31T13:51:17.461Z,69.92
2022-12-31T13:53:56.057Z,70.39
2022-12-31T13:56:26.863Z,71.75
2022-12-31T13:59:02.895Z,73.59
2022-12-31T14:01:43.161Z,73.72
2022-12-31T14:04:16.815Z,75.35
2022-12-31T14:07:12.140Z,75.31
2022-12-31T14:09:38.793Z,74.12
2022-12-31T14:12:20.685Z,75.21
2022-12-31T14:15:13.836Z,75.67
2022-12-31T14:17:49.891Z,75.37
2022-12-31T14:20:33.017Z,75.45
2022-12-31T14:23:17.693Z,75.21
2022-12-31T14:25:50.694Z,75.55
2022-12-31T14:28:23.287Z,76.29
2022-12-31T14:30:57.447Z,76.53
2022-12-31T14:33:37.190Z,76.34
2022-12-31T14:36:19.161Z,77.04
2022-12-31T14:39:25.403Z,76.88
2022-12-31T14:42:10.556Z,77.23
2022-12-31T14:45:02.229Z,77.15
2022-12-31T14:47:43.597Z,78.44
2022-12-31T14:50:15.190Z,78.15
2022-12-31T14:52:52.928Z,77.97
2022-12-31T14:55:25.912Z,78.58
2022-12-31T14:58:26.324Z,80.30
2022-12-31T15:00:50.695Z,80.81
2022-12-31T15:03:25.282Z,80.00
2022-12-31T15:06:14.407Z,80.87
2022-12-31T15:09:07.610Z,80.77
2022-12-31T15:11:45.538Z,80.30
2022-12-31T15:14:37.831Z,80.25
2022-12-31T15:17:34.341Z,81.00
2022-12-31T15:20:34.730Z,81.22
2022-12-31T15:23:01.634Z,80.44
2022-12-31T15:25:41.373Z,80.44
2022-12-31T15:28:29.155Z,80.27
2022-12-31T15:31:04.172Z,80.44
2022-12-31T15:33:38.596Z,81.11
2022-12-31T15:36:16.339Z,80.86
2022-12-31T15:38:43.846Z,81.23
2022-12-31T15:41:25.838Z,81.50
2022-12-31T15:44:06.871Z,83.90
2022-12-31T15:46:41.375Z,83.75
2022-12-31T15:49:16.277Z,84.59
2022-12-31T15:51:47.772Z,85.73
2022-12-31T15:54:34.367Z,83.87
2022-12-31T15:57:07.187Z,83.67
2022-12-31T15:59:37.471Z,83.39
2022-12-31T16:02:04.178Z,83.38
2022-12-31T16:04:33.994Z,83.38
2022-12-31T16:07:03.492Z,83.74
2022-12-31T16:09:35.381Z,83.32
2022-12-31T16:12:09.480Z,83.32
2022-12-31T16:14:39.892Z,83.18
2022-12-31T16:17:21.253Z,84.06
2022-12-31T16:19:47.690Z,83.45
2022-12-31T16:22:17.470Z,83.31
2022-12-31T16:25:19.465Z,83.39
2022-12-31T16:27:33.683Z,83.26
2022-12-31T16:30:06.506Z,83.67
2022-12-31T16:32:37.377Z,83.96
2022-12-31T16:35:23.861Z,84.25
2022-12-31T16:38:10.426Z,83.84
2022-12-31T16:40:38.130Z,84.23
2022-12-31T16:43:23.398Z,84.29
2022-12-31T16:45:50.251Z,84.46
2022-12-31T16:48:19.562Z,84.46
2022-12-31T16:50:49.871Z,84.07
2022-12-31T16:53:23.204Z,83.84
2022-12-31T16:55:55.192Z,83.79
2022-12-31T16:58:30.027Z,83.60
2022-12-31T17:01:11.193Z,83.48
2022-12-31T17:03:41.437Z,83.89
2022-12-31T17:06:15.596Z,84.09
2022-12-31T17:08:49.891Z,84.02
2022-12-31T17:11:23.755Z,83.95
2022-12-31T17:13:55.375Z,84.30
2022-12-31T17:16:22.907Z,84.37
2022-12-31T17:18:50.419Z,84.77
2022-12-31T17:21:18.018Z,85.48
2022-12-31T17:23:52.945Z,85.04
2022-12-31T17:26:26.070Z,84.66
2022-12-31T17:28:54.959Z,84.72
2022-12-31T17:31:32.759Z,84.89
2022-12-31T17:34:20.348Z,85.90
2022-12-31T17:36:59.554Z,85.63
2022-12-31T17:39:38.642Z,85.31
2022-12-31T17:42:07.149Z,85.97
2022-12-31T17:44:37.740Z,85.53
2022-12-31T17:47:04.436Z,85.15
2022-12-31T17:49:31.433Z,85.09
2022-12-31T17:51:58.023Z,85.07
2022-12-31T17:54:24.532Z,85.22
2022-12-31T17:56:52.100Z,84.99
2022-12-31T17:59:28.920Z,85.30
2022-12-31T18:02:00.564Z,85.74
2022-12-31T18:04:27.141Z,85.51
2022-12-31T18:06:53.548Z,85.24
2022-12-31T18:09:20.242Z,85.31
2022-12-31T18:11:46.944Z,85.11
2022-12-31T18:14:15.533Z,85.44
2022-12-31T18:16:42.040Z,85.84
2022-12-31T18:19:23.634Z,85.69
2022-12-31T18:22:00.084Z,85.32
2022-12-31T18:24:26.615Z,85.30
2022-12-31T18:26:53.434Z,85.81
2022-12-31T18:29:20.292Z,86.94
2022-12-31T18:32:04.781Z,87.26
2022-12-31T18:34:31.484Z,87.42
2022-12-31T18:36:58.750Z,87.34
2022-12-31T18:39:25.181Z,87.06
2022-12-31T18:41:51.721Z,86.73
2022-12-31T18:44:18.164Z,86.77
2022-12-31T18:46:44.627Z,87.55
2022-12-31T18:49:11.277Z,87.44
2022-12-31T18:51:37.736Z,86.94
2022-12-31T18:54:04.566Z,86.92
2022-12-31T18:56:31.424Z,87.42
2022-12-31T18:58:59.028Z,88.98
2022-12-31T19:01:33.441Z,90.72
2022-12-31T19:04:03.207Z,89.27
2022-12-31T19:06:29.956Z,88.65
2022-12-31T19:08:56.468Z,88.47
2022-12-31T19:11:23.417Z,88.11
2022-12-31T19:13:49.946Z,88.00
2022-12-31T19:16:17.296Z,87.59
2022-12-31T19:18:45.465Z,87.32
2022-12-31T19:21:21.898Z,86.99
2022-12-31T19:23:49.862Z,87.00
2022-12-31T19:26:19.253Z,86.71
2022-12-31T19:28:46.829Z,86.81
2022-12-31T19:31:13.619Z,87.46
2022-12-31T19:33:41.341Z,87.60
2022-12-31T19:36:15.423Z,87.61
2022-12-31T19:38:42.752Z,87.32
2022-12-31T19:41:15.342Z,87.57
2022-12-31T19:43:41.950Z,88.26
2022-12-31T19:46:13.005Z,88.50
2022-12-31T19:48:39.648Z,88.18
2022-12-31T19:51:09.778Z,88.05
2022-12-31T19:53:36.327Z,89.31
2022-12-31T19:56:03.516Z,88.60
2022-12-31T19:58:31.260Z,88.22
2022-12-31T20:01:02.949Z,88.93
2022-12-31T20:03:31.923Z,88.50
2022-12-31T20:06:01.821Z,88.28
2022-12-31T20:08:28.382Z,88.07
2022-12-31T20:10:58.077Z,88.13
2022-12-31T20:13:26.259Z,88.14
2022-12-31T20:15:53.591Z,88.19
2022-12-31T20:18:22.213Z,88.34
2022-12-31T20:20:55.372Z,88.79
2022-12-31T20:23:22.381Z,88.53
2022-12-31T20:26:04.159Z,88.62
2022-12-31T20:28:30.766Z,88.39
2022-12-31T20:30:57.391Z,88.27
2022-12-31T20:33:23.948Z,88.37
2022-12-31T20:35:50.777Z,88.06
2022-12-31T20:38:17.277Z,87.94
2022-12-31T20:40:46.973Z,88.36
2022-12-31T20:43:13.800Z,87.83
2022-12-31T20:45:41.278Z,87.91
2022-12-31T20:48:07.922Z,87.96
2022-12-31T20:50:34.633Z,87.77
2022-12-31T20:53:01.397Z,88.19
2022-12-31T20:55:30.099Z,88.02
2022-12-31T20:57:56.672Z,88.38
2022-12-31T21:00:23.237Z,90.26
2022-12-31T21:02:59.005Z,88.99
2022-12-31T21:05:34.030Z,89.23
2022-12-31T21:08:00.743Z,89.43
2022-12-31T21:10:27.187Z,90.26
2022-12-31T21:12:53.717Z,89.59
2022-12-31T21:15:20.885Z,89.29
2022-12-31T21:17:47.504Z,89.13
2022-12-31T21:20:14.048Z,89.16
2022-12-31T21:22:40.529Z,89.05
2022-12-31T21:25:07.367Z,89.03
2022-12-31T21:27:35.230Z,89.01
2022-12-31T21:30:18.128Z,88.97
2022-12-31T21:32:45.882Z,88.99
2022-12-31T21:35:41.576Z,88.89
2022-12-31T21:38:01.049Z,89.06
2022-12-31T21:40:28.886Z,88.98
2022-12-31T21:42:55.384Z,88.82
2022-12-31T21:45:22.261Z,88.87
2022-12-31T21:47:59.777Z,88.88
2022-12-31T21:50:26.428Z,88.68
2022-12-31T21:52:52.833Z,88.59
2022-12-31T21:55:30.312Z,88.42
2022-12-31T21:58:25.426Z,88.52
2022-12-31T22:01:00.699Z,88.32
2022-12-31T22:03:28.044Z,88.40
2022-12-31T22:06:02.307Z,88.02
2022-12-31T22:08:30.202Z,88.19
2022-12-31T22:10:57.071Z,88.09
2022-12-31T22:13:23.683Z,88.19
2022-12-31T22:15:58.754Z,88.15
2022-12-31T22:18:29.303Z,88.42
2022-12-31T22:21:05.622Z,88.09
2022-12-31T22:23:33.476Z,88.32
2022-12-31T22:26:01.144Z,88.35
2022-12-31T22:28:38.073Z,88.46
2022-12-31T22:31:16.703Z,88.56
2022-12-31T22:33:44.059Z,88.48
2022-12-31T22:36:14.462Z,88.59
2022-12-31T22:38:44.971Z,88.86
2022-12-31T22:41:17.528Z,88.75
2022-12-31T22:43:51.748Z,88.61
2022-12-31T22:46:21.930Z,88.62
2022-12-31T22:48:49.133Z,88.68
2022-12-31T22:51:17.310Z,88.64
2022-12-31T22:53:44.148Z,88.76
2022-12-31T22:56:13.852Z,88.68
2022-12-31T22:58:40.700Z,88.72
2022-12-31T23:01:15.048Z,88.81
2022-12-31T23:03:41.826Z,88.80
2022-12-31T23:06:08.488Z,88.86
2022-12-31T23:08:34.959Z,88.87
2022-12-31T23:11:05.067Z,88.51
2022-12-31T23:13:55.250Z,88.40
2022-12-31T23:16:35.568Z,88.39
2022-12-31T23:19:15.583Z,88.32
2022-12-31T23:21:55.783Z,88.79
2022-12-31T23:24:26.705Z,88.40
2022-12-31T23:26:56.467Z,88.36
2022-12-31T23:29:24.612Z,88.49
2022-12-31T23:31:52.238Z,88.67
2022-12-31T23:34:18.896Z,88.61
2022-12-31T23:36:45.274Z,88.52
2022-12-31T23:39:12.733Z,89.42
2022-12-31T23:41:39.661Z,90.34
2022-12-31T23:44:06.288Z,90.54
2022-12-31T23:46:32.905Z,90.33
2022-12-31T23:48:59.457Z,90.41
2022-12-31T23:51:25.932Z,90.12
2022-12-31T23:53:52.341Z,89.96
2022-12-31T23:56:23.650Z,90.04
2022-12-31T23:58:55.241Z,89.77
